createdAt,value
2023-02-08T00:00:08.298Z,99.90
2023-02-08T00:02:37.703Z,99.90
2023-02-08T00:05:06.139Z,99.90
2023-02-08T00:07:34.142Z,99.90
2023-02-08T00:10:05.016Z,99.90
2023-02-08T00:12:33.066Z,99.90
2023-02-08T00:15:01.316Z,99.90
2023-02-08T00:17:29.665Z,99.90
2023-02-08T00:19:59.057Z,99.90
2023-02-08T00:22:27.122Z,99.90
2023-02-08T00:24:55.157Z,99.90
2023-02-08T00:27:23.363Z,99.90
2023-02-08T00:29:51.409Z,99.90
2023-02-08T00:32:19.483Z,99.90
2023-02-08T00:34:47.425Z,99.90
2023-02-08T00:37:16.814Z,99.90
2023-02-08T00:39:45.067Z,99.90
2023-02-08T00:42:13.149Z,99.90
2023-02-08T00:44:41.201Z,99.90
2023-02-08T00:47:09.218Z,99.90
2023-02-08T00:49:37.416Z,99.90
2023-02-08T00:52:05.583Z,99.90
2023-02-08T00:54:34.935Z,99.90
2023-02-08T00:57:02.916Z,99.90
2023-02-08T00:59:30.949Z,99.90
2023-02-08T01:01:58.980Z,99.90
2023-02-08T01:04:27.409Z,99.90
2023-02-08T01:06:55.402Z,99.90
2023-02-08T01:09:23.764Z,99.90
2023-02-08T01:11:53.128Z,99.90
2023-02-08T01:14:21.148Z,99.90
2023-02-08T01:16:49.184Z,99.90
2023-02-08T01:19:17.685Z,99.90
2023-02-08T01:21:45.976Z,99.90
2023-02-08T01:24:14.010Z,99.90
2023-02-08T01:26:42.154Z,99.90
2023-02-08T01:29:11.538Z,99.90
2023-02-08T01:31:42.092Z,99.90
2023-02-08T01:34:10.978Z,99.90
2023-02-08T01:36:40.128Z,99.90
2023-02-08T01:39:09.685Z,99.90
2023-02-08T01:41:39.602Z,99.90
2023-02-08T01:44:24.194Z,99.90
2023-02-08T01:46:53.692Z,99.90
2023-02-08T01:49:25.085Z,99.90
2023-02-08T01:51:57.273Z,99.90
2023-02-08T01:54:29.575Z,99.90
2023-02-08T01:56:57.749Z,99.90
2023-02-08T01:59:28.942Z,99.90
2023-02-08T02:02:00.196Z,99.90
2023-02-08T02:04:29.156Z,99.90
2023-02-08T02:06:59.648Z,99.90
2023-02-08T02:09:32.437Z,99.90
2023-02-08T02:12:01.687Z,99.90
2023-02-08T02:14:30.449Z,99.90
2023-02-08T02:17:02.294Z,99.90
2023-02-08T02:19:38.682Z,99.90
2023-02-08T02:22:21.791Z,99.90
2023-02-08T02:25:07.408Z,99.90
2023-02-08T02:28:20.424Z,99.90
2023-02-08T02:31:21.156Z,99.90
2023-02-08T02:33:59.364Z,99.90
2023-02-08T02:36:36.225Z,99.90
2023-02-08T02:39:15.222Z,99.90
2023-02-08T02:42:09.260Z,99.90
2023-02-08T02:44:45.566Z,99.90
2023-02-08T02:47:20.863Z,99.90
2023-02-08T02:49:55.298Z,99.90
2023-02-08T02:52:33.556Z,99.90
2023-02-08T02:55:08.357Z,99.90
2023-02-08T02:57:37.294Z,99.90
2023-02-08T03:00:08.997Z,99.90
2023-02-08T03:02:37.034Z,99.90
2023-02-08T03:05:08.507Z,99.90
2023-02-08T03:07:52.202Z,99.90
2023-02-08T03:10:39.872Z,99.90
2023-02-08T03:13:24.228Z,99.90
2023-02-08T03:16:02.143Z,99.90
2023-02-08T03:18:37.678Z,99.90
2023-02-08T03:21:13.010Z,99.90
2023-02-08T03:23:47.481Z,99.90
2023-02-08T03:26:23.746Z,99.90
2023-02-08T03:28:59.606Z,99.90
2023-02-08T03:31:31.772Z,99.90
2023-02-08T03:34:07.190Z,99.90
2023-02-08T03:36:44.003Z,99.90
2023-02-08T03:39:17.067Z,99.90
2023-02-08T03:41:48.841Z,99.90
2023-02-08T03:44:22.273Z,99.90
2023-02-08T03:46:53.946Z,99.90
2023-02-08T03:49:25.623Z,99.90
2023-02-08T03:51:57.643Z,99.90
2023-02-08T03:54:29.106Z,99.90
2023-02-08T03:57:02.974Z,99.90
2023-02-08T03:59:35.740Z,99.90
2023-02-08T04:02:07.282Z,99.90
2023-02-08T04:04:38.548Z,99.90
2023-02-08T04:07:07.999Z,99.90
2023-02-08T04:09:38.539Z,99.90
2023-02-08T04:12:07.584Z,99.90
2023-02-08T04:14:35.608Z,99.90
2023-02-08T04:17:03.932Z,99.90
2023-02-08T04:19:32.115Z,99.90
2023-02-08T04:22:00.206Z,99.90
2023-02-08T04:24:29.579Z,99.90
2023-02-08T04:26:57.621Z,99.90
2023-02-08T04:29:25.640Z,99.90
2023-02-08T04:31:53.683Z,99.90
2023-02-08T04:34:21.942Z,99.90
2023-02-08T04:36:50.027Z,99.90
2023-02-08T04:39:18.109Z,99.90
2023-02-08T04:41:47.494Z,99.90
2023-02-08T04:44:15.862Z,99.90
2023-02-08T04:46:44.052Z,99.90
2023-02-08T04:49:12.131Z,99.90
2023-02-08T04:51:40.209Z,99.90
2023-02-08T04:54:08.415Z,99.90
2023-02-08T04:56:37.216Z,99.90
2023-02-08T04:59:06.597Z,99.90
2023-02-08T05:01:34.595Z,99.90
2023-02-08T05:04:02.627Z,99.90
2023-02-08T05:06:30.817Z,99.90
2023-02-08T05:08:58.928Z,99.90
2023-02-08T05:11:27.387Z,99.90
2023-02-08T05:13:55.433Z,99.90
2023-02-08T05:16:24.955Z,99.90
2023-02-08T05:18:52.993Z,99.90
2023-02-08T05:21:23.807Z,99.90
2023-02-08T05:23:52.374Z,99.90
2023-02-08T05:26:20.708Z,99.90
2023-02-08T05:28:49.355Z,99.90
2023-02-08T05:31:20.819Z,99.90
2023-02-08T05:33:51.057Z,99.90
2023-02-08T05:36:19.704Z,99.90
2023-02-08T05:38:47.836Z,99.90
2023-02-08T05:41:16.030Z,99.90
2023-02-08T05:43:44.010Z,99.90
2023-02-08T05:46:12.371Z,99.90
2023-02-08T05:48:40.700Z,99.90
2023-02-08T05:51:10.382Z,99.90
2023-02-08T05:53:38.642Z,99.90
2023-02-08T05:56:07.183Z,99.90
2023-02-08T05:58:35.339Z,99.90
2023-02-08T06:01:08.269Z,99.90
2023-02-08T06:03:36.275Z,99.90
2023-02-08T06:06:04.367Z,99.90
2023-02-08T06:08:34.021Z,99.90
2023-02-08T06:11:02.011Z,99.90
2023-02-08T06:13:30.102Z,99.90
2023-02-08T06:15:58.428Z,99.90
2023-02-08T06:18:26.819Z,99.90
2023-02-08T06:20:55.431Z,99.90
2023-02-08T06:23:24.413Z,99.90
2023-02-08T06:25:53.818Z,99.90
2023-02-08T06:28:22.214Z,99.90
2023-02-08T06:30:50.872Z,99.90
2023-02-08T06:33:20.400Z,99.90
2023-02-08T06:35:52.062Z,99.90
2023-02-08T06:38:20.244Z,99.90
2023-02-08T06:40:48.777Z,99.90
2023-02-08T06:43:18.549Z,99.90
2023-02-08T06:45:47.275Z,99.90
2023-02-08T06:48:15.857Z,99.90
2023-02-08T06:50:44.270Z,99.90
2023-02-08T06:53:12.503Z,99.90
2023-02-08T06:55:40.564Z,99.90
2023-02-08T06:58:08.571Z,99.90
2023-02-08T07:00:39.184Z,99.90
2023-02-08T07:03:07.530Z,99.90
2023-02-08T07:05:35.992Z,99.90
2023-02-08T07:08:04.125Z,99.90
2023-02-08T07:10:32.198Z,99.90
2023-02-08T07:13:00.319Z,99.90
2023-02-08T07:15:30.382Z,99.90
2023-02-08T07:18:00.035Z,99.90
2023-02-08T07:20:28.105Z,99.90
2023-02-08T07:22:56.504Z,99.90
2023-02-08T07:25:24.486Z,99.90
2023-02-08T07:27:52.490Z,99.90
2023-02-08T07:30:20.736Z,99.90
2023-02-08T07:32:48.713Z,99.90
2023-02-08T07:35:18.349Z,99.90
2023-02-08T07:37:46.379Z,99.90
2023-02-08T07:40:14.455Z,99.90
2023-02-08T07:42:42.495Z,99.90
2023-02-08T07:45:22.465Z,99.90
2023-02-08T07:47:50.485Z,99.90
2023-02-08T07:50:20.041Z,99.90
2023-02-08T07:52:48.114Z,99.90
2023-02-08T07:55:17.089Z,99.90
2023-02-08T07:57:45.621Z,99.90
2023-02-08T08:00:14.579Z,99.90
2023-02-08T08:02:42.955Z,99.90
2023-02-08T08:05:11.874Z,99.90
2023-02-08T08:07:41.262Z,99.90
2023-02-08T08:10:09.807Z,99.90
2023-02-08T08:12:37.831Z,99.90
2023-02-08T08:15:06.720Z,99.90
2023-02-08T08:17:34.801Z,99.90
2023-02-08T08:20:02.950Z,99.90
2023-02-08T08:22:31.091Z,99.90
2023-02-08T08:25:00.468Z,99.90
2023-02-08T08:27:28.595Z,99.90
2023-02-08T08:29:56.597Z,99.90
2023-02-08T08:32:24.684Z,99.90
2023-02-08T08:34:52.755Z,99.90
2023-02-08T08:37:20.749Z,99.90
2023-02-08T08:39:48.755Z,99.90
2023-02-08T08:42:18.190Z,99.90
2023-02-08T08:44:46.232Z,99.90
2023-02-08T08:47:14.552Z,99.90
2023-02-08T08:49:43.786Z,99.90
2023-02-08T08:52:12.761Z,99.90
2023-02-08T08:54:40.792Z,99.90
2023-02-08T08:57:08.862Z,99.90
2023-02-08T08:59:38.289Z,99.90
2023-02-08T09:02:06.341Z,99.90
2023-02-08T09:04:34.769Z,99.90
2023-02-08T09:07:02.854Z,99.90
2023-02-08T09:09:30.883Z,99.90
2023-02-08T09:11:58.981Z,99.90
2023-02-08T09:14:27.054Z,99.90
2023-02-08T09:16:56.521Z,99.90
2023-02-08T09:19:24.594Z,99.90
2023-02-08T09:21:52.652Z,99.90
2023-02-08T09:24:20.750Z,99.90
2023-02-08T09:26:48.783Z,99.90
2023-02-08T09:29:16.846Z,99.80
2023-02-08T09:31:44.963Z,99.70
2023-02-08T09:34:14.361Z,99.00
2023-02-08T09:36:42.737Z,99.00
2023-02-08T09:39:14.620Z,98.80
2023-02-08T09:42:01.487Z,98.20
2023-02-08T09:44:37.431Z,97.90
2023-02-08T09:47:15.516Z,97.80
2023-02-08T09:49:57.474Z,97.70
2023-02-08T09:52:34.420Z,97.60
2023-02-08T09:55:22.386Z,97.40
2023-02-08T09:57:56.001Z,97.40
2023-02-08T10:00:35.444Z,97.30
2023-02-08T10:03:04.654Z,97.20
2023-02-08T10:05:35.650Z,96.90
2023-02-08T10:08:03.792Z,96.70
2023-02-08T10:10:43.176Z,96.90
2023-02-08T10:13:40.360Z,96.90
2023-02-08T10:16:19.483Z,97.50
2023-02-08T10:18:53.350Z,96.80
2023-02-08T10:21:41.406Z,95.20
2023-02-08T10:24:29.028Z,95.20
2023-02-08T10:27:04.611Z,94.70
2023-02-08T10:29:56.686Z,94.60
2023-02-08T10:32:38.954Z,95.00
2023-02-08T10:35:11.547Z,94.30
2023-02-08T10:37:44.064Z,93.70
2023-02-08T10:40:25.350Z,93.50
2023-02-08T10:42:59.310Z,93.40
2023-02-08T10:45:31.609Z,92.80
2023-02-08T10:48:05.625Z,93.10
2023-02-08T10:50:36.807Z,92.70
2023-02-08T10:53:07.505Z,92.50
2023-02-08T10:55:40.784Z,92.50
2023-02-08T10:58:13.500Z,93.90
2023-02-08T11:00:43.036Z,92.90
2023-02-08T11:03:21.482Z,91.80
2023-02-08T11:05:49.895Z,91.60
2023-02-08T11:08:22.467Z,91.30
2023-02-08T11:10:59.397Z,90.60
2023-02-08T11:13:36.376Z,90.50
2023-02-08T11:16:07.155Z,89.20
2023-02-08T11:18:37.326Z,85.70
2023-02-08T11:21:08.058Z,84.30
2023-02-08T11:23:39.077Z,81.50
2023-02-08T11:26:19.807Z,79.40
2023-02-08T11:29:02.159Z,76.50
2023-02-08T11:31:31.923Z,73.70
2023-02-08T11:34:02.509Z,73.40
2023-02-08T11:36:32.920Z,72.10
2023-02-08T11:39:15.841Z,71.70
2023-02-08T11:41:45.703Z,71.70
2023-02-08T11:44:22.067Z,71.00
2023-02-08T11:46:51.695Z,71.20
2023-02-08T11:49:25.720Z,71.50
2023-02-08T11:51:54.323Z,71.90
2023-02-08T11:54:41.273Z,70.10
2023-02-08T11:57:15.960Z,70.00
2023-02-08T11:59:44.037Z,70.50
2023-02-08T12:02:29.973Z,70.40
2023-02-08T12:04:59.594Z,70.50
2023-02-08T12:07:49.029Z,72.40
2023-02-08T12:10:51.196Z,71.30
2023-02-08T12:13:40.674Z,69.90
2023-02-08T12:16:21.211Z,69.80
2023-02-08T12:19:11.287Z,69.80
2023-02-08T12:21:44.352Z,68.80
2023-02-08T12:24:21.055Z,69.30
2023-02-08T12:27:08.229Z,69.10
2023-02-08T12:29:48.355Z,68.80
2023-02-08T12:32:42.980Z,69.30
2023-02-08T12:36:01.843Z,68.50
2023-02-08T12:39:18.397Z,67.90
2023-02-08T12:42:01.234Z,67.90
2023-02-08T12:44:36.874Z,68.20
2023-02-08T12:47:16.845Z,67.10
2023-02-08T12:49:57.097Z,67.40
2023-02-08T12:52:34.174Z,66.10
2023-02-08T12:55:06.432Z,66.60
2023-02-08T12:57:36.281Z,67.50
2023-02-08T13:00:07.307Z,66.50
2023-02-08T13:02:44.940Z,66.10
2023-02-08T13:05:18.436Z,65.60
2023-02-08T13:07:50.391Z,65.50
2023-02-08T13:10:26.689Z,64.90
2023-02-08T13:12:59.600Z,65.30
2023-02-08T13:15:36.190Z,65.30
2023-02-08T13:18:13.098Z,64.50
2023-02-08T13:20:45.204Z,63.80
2023-02-08T13:23:21.607Z,62.60
2023-02-08T13:25:51.657Z,62.80
2023-02-08T13:28:23.759Z,62.20
2023-02-08T13:30:59.676Z,61.30
2023-02-08T13:33:35.291Z,61.50
2023-02-08T13:36:04.098Z,61.00
2023-02-08T13:38:34.786Z,61.40
2023-02-08T13:41:15.793Z,61.80
2023-02-08T13:43:50.685Z,60.80
2023-02-08T13:46:20.133Z,60.70
2023-02-08T13:48:50.692Z,59.40
2023-02-08T13:51:58.645Z,58.90
2023-02-08T13:54:26.948Z,58.50
2023-02-08T13:56:56.228Z,59.00
2023-02-08T13:59:35.359Z,58.90
2023-02-08T14:02:30.400Z,59.60
2023-02-08T14:05:35.323Z,59.30
2023-02-08T14:08:05.843Z,59.00
2023-02-08T14:10:51.258Z,59.20
2023-02-08T14:13:29.908Z,59.10
2023-02-08T14:16:28.186Z,58.40
2023-02-08T14:18:58.493Z,57.30
2023-02-08T14:21:33.201Z,56.70
2023-02-08T14:24:04.785Z,56.30
2023-02-08T14:26:36.441Z,55.60
2023-02-08T14:29:07.493Z,55.60
2023-02-08T14:31:43.388Z,56.80
2023-02-08T14:34:27.476Z,57.50
2023-02-08T14:37:02.471Z,58.60
2023-02-08T14:39:34.550Z,57.70
2023-02-08T14:42:07.116Z,57.80
2023-02-08T14:45:06.183Z,57.90
2023-02-08T14:48:17.625Z,58.70
2023-02-08T14:51:03.853Z,59.40
2023-02-08T14:53:43.612Z,59.50
2023-02-08T14:56:18.285Z,59.80
2023-02-08T14:58:49.699Z,59.60
2023-02-08T15:01:20.999Z,59.40
2023-02-08T15:03:55.461Z,60.00
2023-02-08T15:06:53.612Z,59.70
2023-02-08T15:09:24.181Z,59.60
2023-02-08T15:12:00.645Z,59.50
2023-02-08T15:14:31.052Z,59.40
2023-02-08T15:16:59.574Z,59.10
2023-02-08T15:19:34.063Z,59.30
2023-02-08T15:22:19.158Z,59.10
2023-02-08T15:24:54.971Z,59.40
2023-02-08T15:27:24.946Z,59.00
2023-02-08T15:29:53.525Z,59.40
2023-02-08T15:32:24.492Z,59.30
2023-02-08T15:34:57.161Z,59.30
2023-02-08T15:37:25.889Z,59.20
2023-02-08T15:39:56.421Z,59.10
2023-02-08T15:42:26.802Z,58.90
2023-02-08T15:44:55.012Z,59.20
2023-02-08T15:47:28.287Z,58.80
2023-02-08T15:49:58.885Z,59.00
2023-02-08T15:52:31.110Z,59.20
2023-02-08T15:54:59.180Z,59.20
2023-02-08T15:57:36.983Z,59.50
2023-02-08T16:00:07.698Z,59.20
2023-02-08T16:02:36.577Z,59.60
2023-02-08T16:05:18.604Z,60.30
2023-02-08T16:07:47.866Z,60.50
2023-02-08T16:10:25.282Z,60.20
2023-02-08T16:12:56.327Z,59.50
2023-02-08T16:15:38.842Z,59.10
2023-02-08T16:18:07.350Z,59.40
2023-02-08T16:20:37.493Z,60.00
2023-02-08T16:23:24.318Z,60.10
2023-02-08T16:25:52.489Z,60.50
2023-02-08T16:28:28.062Z,60.50
2023-02-08T16:30:58.109Z,61.00
2023-02-08T16:33:27.060Z,61.40
2023-02-08T16:36:01.762Z,61.80
2023-02-08T16:38:31.478Z,61.50
2023-02-08T16:41:11.942Z,61.60
2023-02-08T16:43:43.814Z,61.90
2023-02-08T16:46:25.252Z,62.20
2023-02-08T16:48:55.933Z,61.80
2023-02-08T16:51:27.659Z,64.10
2023-02-08T16:53:58.319Z,62.60
2023-02-08T16:56:26.490Z,61.90
2023-02-08T16:58:54.492Z,62.20
2023-02-08T17:01:24.015Z,62.40
2023-02-08T17:03:53.047Z,62.90
2023-02-08T17:06:29.508Z,62.90
2023-02-08T17:08:57.751Z,63.30
2023-02-08T17:11:26.193Z,63.60
2023-02-08T17:13:54.649Z,64.00
2023-02-08T17:16:24.783Z,64.30
2023-02-08T17:18:53.166Z,64.50
2023-02-08T17:21:21.657Z,65.10
2023-02-08T17:23:51.551Z,65.50
2023-02-08T17:26:24.189Z,66.20
2023-02-08T17:28:52.308Z,66.50
2023-02-08T17:31:21.229Z,67.00
2023-02-08T17:33:50.213Z,67.50
2023-02-08T17:36:19.338Z,67.80
2023-02-08T17:38:50.544Z,68.10
2023-02-08T17:41:20.868Z,68.60
2023-02-08T17:43:52.147Z,69.40
2023-02-08T17:46:22.763Z,69.40
2023-02-08T17:48:51.302Z,69.90
2023-02-08T17:51:21.166Z,71.30
2023-02-08T17:53:50.866Z,71.30
2023-02-08T17:56:20.469Z,71.70
2023-02-08T17:58:52.932Z,72.20
2023-02-08T18:01:23.781Z,72.80
2023-02-08T18:03:52.994Z,73.20
2023-02-08T18:06:23.040Z,73.80
2023-02-08T18:08:52.444Z,74.20
2023-02-08T18:11:23.328Z,74.40
2023-02-08T18:13:53.406Z,74.70
2023-02-08T18:16:23.462Z,74.90
2023-02-08T18:18:51.699Z,75.50
2023-02-08T18:21:22.417Z,76.60
2023-02-08T18:23:52.588Z,77.60
2023-02-08T18:26:23.299Z,76.90
2023-02-08T18:28:52.180Z,77.40
2023-02-08T18:31:21.990Z,77.80
2023-02-08T18:33:51.432Z,78.30
2023-02-08T18:36:20.563Z,78.40
2023-02-08T18:38:52.440Z,78.80
2023-02-08T18:41:23.989Z,79.00
2023-02-08T18:43:53.367Z,79.40
2023-02-08T18:46:23.866Z,80.50
2023-02-08T18:48:52.695Z,81.00
2023-02-08T18:51:21.909Z,81.50
2023-02-08T18:53:52.747Z,81.60
2023-02-08T18:56:26.072Z,81.80
2023-02-08T18:58:55.328Z,82.10
2023-02-08T19:01:25.274Z,82.20
2023-02-08T19:03:54.077Z,82.60
2023-02-08T19:06:24.607Z,83.20
2023-02-08T19:08:55.770Z,83.10
2023-02-08T19:11:27.384Z,82.40
2023-02-08T19:13:58.339Z,82.50
2023-02-08T19:16:27.639Z,82.50
2023-02-08T19:18:57.239Z,82.80
2023-02-08T19:21:25.306Z,82.90
2023-02-08T19:23:54.589Z,83.10
2023-02-08T19:26:26.196Z,83.40
2023-02-08T19:28:57.055Z,83.40
2023-02-08T19:31:26.191Z,83.60
2023-02-08T19:33:58.601Z,83.70
2023-02-08T19:36:28.435Z,83.50
2023-02-08T19:38:57.666Z,84.10
2023-02-08T19:41:29.476Z,84.60
2023-02-08T19:43:57.800Z,84.90
2023-02-08T19:46:27.563Z,85.10
2023-02-08T19:48:59.996Z,85.50
2023-02-08T19:51:28.487Z,85.50
2023-02-08T19:53:57.712Z,85.60
2023-02-08T19:56:27.436Z,85.50
2023-02-08T19:58:55.531Z,85.40
2023-02-08T20:01:24.574Z,85.40
2023-02-08T20:03:54.807Z,85.30
2023-02-08T20:06:25.181Z,85.10
2023-02-08T20:08:53.722Z,85.50
2023-02-08T20:11:23.536Z,85.50
2023-02-08T20:13:53.971Z,85.90
2023-02-08T20:16:23.204Z,86.00
2023-02-08T20:18:51.888Z,85.50
2023-02-08T20:21:20.459Z,85.70
2023-02-08T20:23:50.169Z,85.20
2023-02-08T20:26:21.054Z,85.40
2023-02-08T20:28:51.685Z,85.50
2023-02-08T20:31:23.675Z,85.10
2023-02-08T20:33:52.658Z,85.20
2023-02-08T20:36:23.515Z,85.40
2023-02-08T20:38:53.286Z,85.70
2023-02-08T20:41:24.037Z,85.50
2023-02-08T20:43:53.060Z,85.80
2023-02-08T20:46:25.557Z,85.40
2023-02-08T20:48:55.972Z,85.50
2023-02-08T20:51:26.517Z,85.60
2023-02-08T20:53:55.932Z,86.20
2023-02-08T20:56:25.801Z,85.80
2023-02-08T20:58:55.224Z,86.10
2023-02-08T21:01:26.271Z,86.20
2023-02-08T21:03:55.029Z,86.50
2023-02-08T21:06:26.405Z,86.70
2023-02-08T21:08:55.612Z,87.00
2023-02-08T21:11:25.219Z,87.40
2023-02-08T21:13:53.649Z,87.60
2023-02-08T21:16:22.291Z,88.10
2023-02-08T21:18:52.034Z,88.00
2023-02-08T21:21:20.637Z,88.60
2023-02-08T21:23:48.902Z,90.00
2023-02-08T21:26:18.726Z,89.70
2023-02-08T21:28:47.230Z,90.50
2023-02-08T21:31:17.772Z,90.30
2023-02-08T21:33:46.508Z,90.50
2023-02-08T21:36:17.991Z,90.90
2023-02-08T21:38:46.384Z,91.30
2023-02-08T21:41:15.865Z,92.10
2023-02-08T21:43:44.377Z,92.70
2023-02-08T21:46:12.467Z,92.90
2023-02-08T21:48:58.088Z,93.00
2023-02-08T21:51:45.177Z,93.20
2023-02-08T21:54:31.475Z,93.60
2023-02-08T21:57:00.557Z,94.50
2023-02-08T21:59:28.994Z,94.80
2023-02-08T22:01:57.055Z,95.00
2023-02-08T22:04:25.445Z,95.40
2023-02-08T22:06:54.823Z,96.20
2023-02-08T22:09:22.840Z,96.20
2023-02-08T22:11:51.017Z,96.50
2023-02-08T22:14:19.053Z,97.00
2023-02-08T22:16:47.185Z,97.20
2023-02-08T22:19:15.895Z,97.10
2023-02-08T22:21:43.983Z,97.10
2023-02-08T22:24:13.479Z,97.20
2023-02-08T22:26:41.678Z,97.20
2023-02-08T22:29:09.769Z,97.50
2023-02-08T22:31:37.959Z,97.80
2023-02-08T22:34:06.386Z,98.00
2023-02-08T22:36:34.518Z,98.20
2023-02-08T22:39:02.592Z,98.30
2023-02-08T22:41:32.128Z,98.50
2023-02-08T22:44:00.202Z,98.60
2023-02-08T22:46:28.477Z,98.50
2023-02-08T22:48:56.484Z,98.90
2023-02-08T22:51:24.656Z,99.50
2023-02-08T22:53:52.702Z,99.80
2023-02-08T22:56:20.836Z,99.90
2023-02-08T22:58:50.707Z,99.90
2023-02-08T23:01:19.107Z,99.90
2023-02-08T23:03:47.126Z,99.80
2023-02-08T23:06:17.310Z,99.70
2023-02-08T23:08:46.086Z,99.80
2023-02-08T23:11:22.262Z,99.90
2023-02-08T23:13:51.849Z,99.90
2023-02-08T23:16:20.680Z,99.70
2023-02-08T23:18:49.126Z,99.30
2023-02-08T23:21:19.138Z,99.20
2023-02-08T23:23:48.960Z,99.30
2023-02-08T23:26:20.336Z,99.30
2023-02-08T23:28:52.669Z,99.40
2023-02-08T23:31:22.013Z,99.70
2023-02-08T23:33:50.214Z,99.70
2023-02-08T23:36:20.028Z,99.70
2023-02-08T23:38:48.543Z,99.70
2023-02-08T23:41:19.084Z,99.70
2023-02-08T23:43:47.521Z,99.90
2023-02-08T23:46:19.160Z,99.90
2023-02-08T23:48:47.839Z,99.90
2023-02-08T23:51:16.976Z,99.90
2023-02-08T23:53:45.721Z,99.90
2023-02-08T23:56:16.547Z,99.90
2023-02-08T23:58:44.987Z,99.90
